• Join FlightAware (Why Join?)
  • Login
  • US Flag 
11:58AM EDT


 

Airport Tracker/Info


-or-


 

Live Flight TrackerFlight Track Log ✈ UAL3740 ✈ 10-Apr-2013 ✈ KPVD - KIAD

Flight Track Log - Related Links

Times and Time Zones

All times are in EDT time to prevent confusion due to time zone crossing. See the UAL3740 flight status page for this flight to view local times or setup timezone preferences in your user account.

Time Position Orientation Groundspeed Altitude Reporting Facility
EDT Latitude Longitude Course Direction KTS MPH feet Rate Location/Type
10:13AM 41.7956 -71.4322 351° North 210 242 3,800  Level Boston Center
10:14AM 41.8336 -71.4872 313° West 218 251 6,000 2,820 Climbing Boston Center
10:15AM 41.8636 -71.5703 296° West 223 257 9,500 2,640 Climbing Boston Center
10:16AM 41.8911 -71.6564 293° West 246 283 11,400 1,860 Climbing Boston Center
10:17AM 41.9211 -71.7453 294° West 278 320 13,300 2,160 Climbing Boston Center
10:18AM 41.9592 -71.8594 294° West 299 344 15,700 2,160 Climbing Boston Center
10:19AM 41.9867 -71.9736 288° West 316 364 17,600 1,680 Climbing Boston Center
10:20AM 42.0144 -72.0936 287° West 328 377 19,200 1,620 Climbing Boston Center
10:21AM 42.0439 -72.2136 288° West 340 391 20,900 1,620 Climbing Boston Center
10:22AM 42.0731 -72.3422 287° West 352 405 22,500 1,620 Climbing Boston Center
10:23AM 42.1044 -72.4708 288° West 352 405 24,100 1,440 Climbing Boston Center
10:24AM 42.1356 -72.6025 288° West 362 417 25,400 1,140 Climbing Boston Center
10:25AM 42.1458 -72.7425 276° West 368 423 26,500 1,020 Climbing Boston Center
10:26AM 42.0786 -72.8597 232° Southwest 362 417 27,500 720 Climbing Boston Center
10:27AM 42.0136 -72.9767 233° Southwest 365 420 28,000 360 Climbing Boston Center
10:28AM 41.9358 -73.1014 230° Southwest 414 476 28,300 660 Climbing Boston Center
10:29AM 41.8558 -73.2206 228° Southwest 425 489 29,400 840 Climbing Boston Center
10:30AM 41.7778 -73.3392 229° Southwest 430 495 30,000 180 Climbing Boston Center
10:32AM 41.6136 -73.5736 227° Southwest 435 501 30,000  Level New York Center
10:33AM 41.5336 -73.6922 228° Southwest 435 501 30,000  Level New York Center
10:34AM 41.4536 -73.8103 228° Southwest 435 501 30,000  Level New York Center
10:35AM 41.3714 -73.9311 228° Southwest 441 507 30,000  Level New York Center
10:36AM 41.2781 -74.0675 228° Southwest 441 507 30,000  Level New York Center
10:37AM 41.1956 -74.1847 227° Southwest 448 516 30,000  Level New York Center
10:38AM 41.1089 -74.2986 225° Southwest 448 516 30,000 -480 Level New York Center
10:39AM 41.0281 -74.4211 229° Southwest 443 510 29,100 -960 Descending New York Center
10:40AM 40.9433 -74.5344 225° Southwest 443 510 28,100 -600 Descending New York Center
10:41AM 40.8811 -74.6572 236° Southwest 431 496 28,000 -120 Descending New York Center
10:42AM 40.8411 -74.7922 249° West 403 464 27,900 -840 Descending New York Center
10:43AM 40.8033 -74.9189 249° West 393 452 26,400 -1,560 Descending New York Center
10:44AM 40.7633 -75.0478 248° West 388 447 24,900 -1,500 Descending New York Center
10:45AM 40.7253 -75.1742 248° West 382 440 23,400 -1,560 Descending New York Center
10:46AM 40.6981 -75.2875 252° West 377 434 21,900 -1,560 Descending New York Center
10:47AM 40.6850 -75.4125 262° West 365 420 20,400 -960 Descending New York Center
10:48AM 40.6761 -75.5322 264° West 349 402 20,000 -240 Descending New York Center
10:49AM 40.6342 -75.6386 243° Southwest 343 395 20,000  Level New York Center
10:50AM 40.5658 -75.7267 224° Southwest 328 377 20,000  Level New York Center
10:51AM 40.4975 -75.8175 225° Southwest 340 391 20,000  Level New York Center
10:52AM 40.4203 -75.9125 223° Southwest 363 418 20,000  Level New York Center
10:53AM 40.3433 -76.0050 223° Southwest 373 429 20,000  Level New York Center
10:54AM 40.2725 -76.1003 226° Southwest 373 429 20,000  Level New York Center
10:55AM 40.1994 -76.1925 224° Southwest 373 429 20,000  Level New York Center
10:56AM 40.1525 -76.3031 241° Southwest 361 415 20,000 -720 Level New York Center
10:57AM 40.1081 -76.4081 241° Southwest 340 391 18,600 -1,620 Descending New York Center
10:58AM 40.0611 -76.5181 241° Southwest 326 375 16,900 -1,140 Descending New York Center
11:00AM 40.0000 -76.7500 251° West 326 375 15,000 -600 Descending Potomac TRACON
11:01AM 39.9500 -76.8333 232° Southwest 318 366 15,000  Level Potomac TRACON
11:02AM 39.8833 -76.9333 229° Southwest 317 365 15,000 -420 Level Potomac TRACON
11:03AM 39.8333 -77.0000 226° Southwest 321 369 14,300 -1,200 Descending Potomac TRACON
11:04AM 39.7667 -77.1000 229° Southwest 315 362 12,800 -1,200 Descending Potomac TRACON
11:05AM 39.7167 -77.1833 232° Southwest 273 314 11,800 -1,200 Descending Potomac TRACON
11:06AM 39.6667 -77.2500 226° Southwest 260 299 10,300 -960 Descending Potomac TRACON
11:07AM 39.6333 -77.3167 237° Southwest 270 311 10,000 -600 Descending Potomac TRACON
11:08AM 39.5667 -77.3500 201° Southwest 288 331 9,200 -1,020 Descending Potomac TRACON
11:09AM 39.4833 -77.3833 197° South 285 328 8,000 -1,140 Descending Potomac TRACON
11:10AM 39.4167 -77.4000 191° South 280 322 7,100 -1,020 Descending Potomac TRACON
11:11AM 39.3333 -77.4167 189° South 268 308 6,100 -900 Descending Potomac TRACON
11:12AM 39.2667 -77.4500 201° Southwest 277 319 5,300 -1,080 Descending Potomac TRACON
11:13AM 39.1833 -77.4500 180° South 271 312 4,000 -900 Descending Potomac TRACON
11:14AM 39.1167 -77.4500 180° South 239 275 3,500 -900 Descending Potomac TRACON
11:15AM 39.0667 -77.4500 180° South 196 226 2,300 -1,140 Descending Potomac TRACON
11:16AM 39.0167 -77.4667 195° South 149 171 1,300 -900 Descending Potomac TRACON
11:17AM 38.9833 -77.4667 180° South 142 163 500 -840 Descending Potomac TRACON
11:19AM 38.9474 -77.4599 180° South  Level Estimated
11:26AM 38.9474 -77.4599 349° North  Level Estimated